Time;durP1;ratioP1;P1;durP2;ratioP2;P2;SDS_P1;SDS_P2;PMS_P1;PMS_P2;Temp;Humidity;BMP_temperature;BMP_pressure;BME280_temperature;BME280_humidity;BME280_pressure;Samples;Min_cycle;Max_cycle;Signal;HPM_P1;HPM_P2
2023/05/21 00:01:24;;;;;;;2.47;1.15;;;;;;;32.38;33.66;101049.78;4860371;29;20076;-75
2023/05/21 00:03:53;;;;;;;2.33;1.27;;;;;;;32.46;33.39;101044.88;4854670;29;20620;-75
2023/05/21 00:06:23;;;;;;;8.50;1.30;;;;;;;32.47;34.33;101045.72;4848077;29;20133;-74
2023/05/21 00:08:52;;;;;;;1.83;1.17;;;;;;;32.37;31.17;101053.44;4851404;29;20622;-75
2023/05/21 00:11:21;;;;;;;3.15;1.08;;;;;;;32.31;31.92;101051.09;4870920;29;20052;-73
2023/05/21 00:13:49;;;;;;;3.90;0.90;;;;;;;32.27;32.00;101057.56;4860708;29;20572;-72
2023/05/21 00:16:18;;;;;;;2.28;0.90;;;;;;;32.18;31.93;101056.25;4859926;29;20073;-73
2023/05/21 00:18:48;;;;;;;2.35;0.68;;;;;;;32.14;31.70;101052.91;4863365;29;20066;-74
2023/05/21 00:21:22;;;;;;;2.92;0.85;;;;;;;32.02;30.74;101044.69;4855040;29;20149;-75
2023/05/21 00:23:52;;;;;;;5.47;1.20;;;;;;;31.82;31.47;101045.75;4862333;29;20076;-72
2023/05/21 00:26:22;;;;;;;3.03;0.73;;;;;;;31.62;31.83;101045.06;4853455;29;20146;-75
2023/05/21 00:28:51;;;;;;;4.45;0.95;;;;;;;31.41;31.92;101040.88;4858614;29;20157;-75
2023/05/21 00:31:20;;;;;;;1.85;0.80;;;;;;;31.30;32.33;101047.59;4856763;29;20057;-72
2023/05/21 00:33:49;;;;;;;2.22;0.82;;;;;;;31.21;32.20;101039.22;4857331;29;20160;-73
2023/05/21 00:36:22;;;;;;;5.18;1.00;;;;;;;31.22;32.87;101051.63;4859565;29;20074;-75
2023/05/21 00:38:53;;;;;;;1.70;0.73;;;;;;;31.24;32.57;101049.72;4862435;29;20096;-73
2023/05/21 00:41:21;;;;;;;3.75;1.00;;;;;;;31.14;32.64;101048.50;4862294;29;20049;-73
2023/05/21 00:43:51;;;;;;;1.00;0.60;;;;;;;31.02;32.51;101050.00;4852489;29;20081;-74
2023/05/21 00:46:21;;;;;;;1.90;0.80;;;;;;;31.04;32.56;101048.97;4863461;29;20045;-75
2023/05/21 00:48:51;;;;;;;2.35;0.80;;;;;;;30.98;33.13;101043.94;4859853;29;20057;-73
2023/05/21 00:51:20;;;;;;;1.60;0.80;;;;;;;30.97;33.44;101052.03;4858139;29;20054;-72
2023/05/21 00:53:53;;;;;;;1.75;0.73;;;;;;;30.94;32.24;101044.16;4860890;29;20180;-73
2023/05/21 00:56:23;;;;;;;2.00;0.68;;;;;;;30.89;33.03;101053.28;4854048;29;20042;-74
2023/05/21 00:58:52;;;;;;;2.05;0.73;;;;;;;30.78;32.88;101041.38;4866541;29;20068;-74
2023/05/21 01:01:24;;;;;;;1.90;0.77;;;;;;;30.57;33.46;101041.50;4855825;29;20054;-73
2023/05/21 01:03:56;;;;;;;3.50;1.08;;;;;;;30.44;33.57;101046.63;4852710;29;20061;-75
2023/05/21 01:06:25;;;;;;;1.05;0.60;;;;;;;30.38;34.05;101051.38;4858619;29;20109;-75
2023/05/21 01:08:56;;;;;;;3.03;0.93;;;;;;;30.24;34.20;101058.22;4848859;29;20045;-74
2023/05/21 01:11:34;;;;;;;4.53;0.70;;;;;;;30.07;34.78;101048.31;4854669;29;20140;-74
2023/05/21 01:14:03;;;;;;;4.45;0.82;;;;;;;29.92;34.88;101056.22;4869521;29;20051;-75
2023/05/21 01:16:32;;;;;;;3.50;1.00;;;;;;;29.78;35.52;101052.38;4860308;29;20258;-74
2023/05/21 01:19:02;;;;;;;1.50;0.75;;;;;;;29.73;35.50;101050.84;4859584;29;20058;-73
2023/05/21 01:21:31;;;;;;;6.43;1.08;;;;;;;29.70;35.83;101051.00;4860430;29;20127;-74
2023/05/21 01:24:01;;;;;;;4.30;0.80;;;;;;;29.67;36.10;101059.13;4852816;29;20077;-76
2023/05/21 01:26:32;;;;;;;3.20;0.90;;;;;;;29.63;36.07;101055.72;4857951;29;20068;-74
2023/05/21 01:29:01;;;;;;;2.13;0.77;;;;;;;29.60;36.53;101050.53;4856847;29;20109;-76
2023/05/21 01:31:38;;;;;;;2.08;0.80;;;;;;;29.53;36.24;101055.28;4857265;29;20176;-74
2023/05/21 01:34:09;;;;;;;2.60;0.73;;;;;;;29.42;36.28;101066.41;4862109;29;20090;-76
2023/05/21 01:36:41;;;;;;;2.42;0.80;;;;;;;29.29;36.93;101064.34;4862553;29;20059;-73
2023/05/21 01:39:18;;;;;;;1.17;0.60;;;;;;;28.90;36.64;101059.75;4843539;29;20057;-75
2023/05/21 01:41:49;;;;;;;2.83;0.70;;;;;;;28.66;36.80;101067.00;4835635;29;20133;-72
2023/05/21 01:44:20;;;;;;;1.45;0.70;;;;;;;28.58;35.98;101072.63;4847190;29;20057;-76
2023/05/21 01:46:49;;;;;;;3.85;1.00;;;;;;;28.52;36.13;101072.84;4836054;29;20054;-74
2023/05/21 01:49:19;;;;;;;3.60;0.70;;;;;;;28.50;36.70;101083.59;4836101;29;20543;-73
2023/05/21 01:51:48;;;;;;;2.90;0.80;;;;;;;28.50;36.30;101088.03;4833262;29;20062;-73
2023/05/21 01:54:19;;;;;;;2.22;0.70;;;;;;;28.45;36.83;101088.19;4831464;29;20759;-74
2023/05/21 01:56:48;;;;;;;2.05;0.70;;;;;;;28.37;36.29;101090.28;4845483;29;20053;-72
2023/05/21 01:59:19;;;;;;;1.23;0.70;;;;;;;28.31;35.07;101090.50;4837649;29;20061;-72
2023/05/21 02:01:47;;;;;;;3.72;1.08;;;;;;;28.28;34.96;101098.63;4842043;29;20053;-74
2023/05/21 02:04:16;;;;;;;1.50;0.90;;;;;;;28.19;37.55;101103.38;4832724;29;20159;-74
2023/05/21 02:06:44;;;;;;;2.45;0.80;;;;;;;27.83;36.98;101104.72;4833834;29;20524;-74
2023/05/21 02:09:13;;;;;;;1.35;0.70;;;;;;;27.66;36.37;101106.22;4839336;29;20054;-74
2023/05/21 02:11:43;;;;;;;2.95;0.85;;;;;;;27.60;36.17;101106.41;4838547;29;20049;-73
2023/05/21 02:14:12;;;;;;;2.10;0.90;;;;;;;27.57;38.01;101117.19;4840186;29;20056;-72
2023/05/21 02:16:41;;;;;;;0.95;0.60;;;;;;;27.53;34.33;101110.22;4835429;29;20221;-72
2023/05/21 02:19:10;;;;;;;3.40;0.75;;;;;;;27.45;34.50;101112.31;4841378;29;20058;-72
2023/05/21 02:21:39;;;;;;;4.80;0.95;;;;;;;27.38;35.96;101110.78;4837636;29;20569;-71
2023/05/21 02:24:08;;;;;;;1.67;0.55;;;;;;;27.32;35.69;101125.13;4840356;29;20049;-72
2023/05/21 02:26:36;;;;;;;1.60;0.80;;;;;;;27.26;35.66;101128.00;4841236;29;20062;-72
2023/05/21 02:29:07;;;;;;;2.58;0.60;;;;;;;27.21;35.09;101130.81;4833605;29;20051;-73
2023/05/21 02:31:36;;;;;;;2.45;0.60;;;;;;;27.15;33.48;101126.56;4831705;29;20389;-73
2023/05/21 02:34:04;;;;;;;3.58;0.70;;;;;;;27.11;35.09;101135.53;4828511;29;20057;-72
2023/05/21 02:36:34;;;;;;;1.52;0.52;;;;;;;27.09;33.15;101131.19;4838921;29;20584;-73
2023/05/21 02:39:03;;;;;;;3.70;0.70;;;;;;;27.08;33.94;101129.47;4851308;29;20121;-73
2023/05/21 02:41:32;;;;;;;1.98;0.60;;;;;;;27.08;32.15;101135.66;4855666;29;20060;-73
2023/05/21 02:44:00;;;;;;;2.03;0.63;;;;;;;26.98;32.84;101120.06;4851989;29;20061;-72
2023/05/21 02:46:30;;;;;;;1.27;0.52;;;;;;;27.05;32.23;101137.53;4861181;29;20079;-73
2023/05/21 02:48:59;;;;;;;1.48;0.50;;;;;;;27.04;31.27;101141.13;4855849;29;20057;-73
2023/05/21 02:51:27;;;;;;;1.27;0.40;;;;;;;27.02;31.11;101134.97;4857115;29;20057;-72
2023/05/21 02:53:56;;;;;;;2.78;0.43;;;;;;;27.01;31.36;101141.19;4852599;29;20195;-72
2023/05/21 02:56:24;;;;;;;2.00;0.60;;;;;;;27.00;31.90;101142.13;4852601;29;20057;-73
2023/05/21 02:58:53;;;;;;;0.65;0.40;;;;;;;26.94;32.13;101143.22;4853315;29;20772;-72
2023/05/21 03:01:21;;;;;;;2.60;0.70;;;;;;;26.90;31.49;101147.75;4861645;29;20052;-72
2023/05/21 03:03:52;;;;;;;2.90;0.50;;;;;;;26.83;30.81;101156.81;4850792;29;20049;-74
2023/05/21 03:06:21;;;;;;;1.50;0.35;;;;;;;26.75;30.16;101164.16;4860307;29;20060;-72
2023/05/21 03:08:50;;;;;;;18.15;1.63;;;;;;;26.70;29.46;101151.00;4852211;29;20070;-74
2023/05/21 03:11:21;;;;;;;3.70;0.68;;;;;;;26.64;30.27;101160.94;4854008;29;20057;-73
2023/05/21 03:13:49;;;;;;;11.55;0.90;;;;;;;26.57;31.13;101162.06;4854745;29;20121;-73
2023/05/21 03:16:18;;;;;;;0.50;0.30;;;;;;;26.47;30.28;101164.97;4860072;29;20536;-74
2023/05/21 03:18:47;;;;;;;0.40;0.30;;;;;;;26.34;27.35;101160.94;4855707;29;20172;-73
2023/05/21 03:21:17;;;;;;;0.57;0.30;;;;;;;26.20;27.92;101171.09;4849845;29;20092;-72
2023/05/21 03:23:46;;;;;;;0.88;0.38;;;;;;;26.08;27.61;101173.16;4857864;29;20065;-72
2023/05/21 03:26:14;;;;;;;0.82;0.30;;;;;;;25.99;27.14;101176.09;4857913;29;20061;-73
2023/05/21 03:28:43;;;;;;;3.10;0.50;;;;;;;25.89;27.94;101187.88;4856188;29;20500;-72
2023/05/21 03:31:11;;;;;;;0.75;0.30;;;;;;;25.80;27.67;101194.25;4856176;29;20121;-73
2023/05/21 03:33:40;;;;;;;0.45;0.30;;;;;;;25.70;27.87;101198.03;4848813;29;20069;-75
2023/05/21 03:36:08;;;;;;;1.88;0.40;;;;;;;25.60;28.93;101201.84;4854281;29;20104;-75
2023/05/21 03:38:39;;;;;;;0.90;0.45;;;;;;;25.45;28.02;101205.78;4857588;29;20132;-73
2023/05/21 03:41:09;;;;;;;1.40;0.30;;;;;;;25.28;28.20;101207.03;4859340;29;20062;-74
2023/05/21 03:43:37;;;;;;;0.77;0.40;;;;;;;25.16;27.73;101219.69;4855516;29;20049;-73
2023/05/21 03:46:06;;;;;;;0.98;0.22;;;;;;;25.03;28.37;101227.03;4860084;29;20136;-74
2023/05/21 03:48:34;;;;;;;0.65;0.20;;;;;;;24.90;28.98;101236.16;4854345;29;20077;-73
2023/05/21 03:51:03;;;;;;;0.75;0.20;;;;;;;24.74;28.54;101231.22;4858115;29;20049;-73
2023/05/21 03:53:34;;;;;;;0.32;0.30;;;;;;;24.61;28.61;101227.09;4857236;29;20050;-76
2023/05/21 03:56:05;;;;;;;3.45;0.35;;;;;;;24.46;30.17;101231.78;4853369;29;20140;-71
2023/05/21 03:58:33;;;;;;;1.10;0.30;;;;;;;24.30;29.46;101240.91;4857423;29;20073;-73
2023/05/21 04:01:03;;;;;;;1.50;0.25;;;;;;;24.17;29.97;101244.72;4860016;29;20049;-72
2023/05/21 04:03:34;;;;;;;0.60;0.28;;;;;;;24.08;30.17;101252.81;4858723;29;20098;-72
2023/05/21 04:06:02;;;;;;;0.38;0.20;;;;;;;24.01;30.07;101258.22;4852703;29;20122;-73
2023/05/21 04:08:31;;;;;;;0.90;0.30;;;;;;;23.93;29.58;101253.97;4854354;29;20053;-74
2023/05/21 04:10:59;;;;;;;1.55;0.30;;;;;;;23.83;29.76;101258.53;4856197;29;20113;-73
2023/05/21 04:13:29;;;;;;;1.05;0.20;;;;;;;23.79;30.09;101270.06;4864289;29;20057;-73
2023/05/21 04:15:58;;;;;;;1.67;0.40;;;;;;;23.73;29.79;101271.00;4860215;29;20049;-73
2023/05/21 04:18:27;;;;;;;2.17;0.20;;;;;;;23.70;29.75;101275.47;4862974;29;20219;-73
2023/05/21 04:20:55;;;;;;;0.45;0.30;;;;;;;23.63;29.29;101269.41;4859848;29;20058;-73
2023/05/21 04:23:24;;;;;;;0.90;0.30;;;;;;;23.55;29.68;101277.47;4861867;29;20046;-73
2023/05/21 04:25:58;;;;;;;0.82;0.68;;;;;;;23.42;29.67;101282.06;4869579;29;20401;-72
2023/05/21 04:28:27;;;;;;;0.50;0.30;;;;;;;23.35;30.53;101290.09;4860841;29;20057;-71
2023/05/21 04:30:57;;;;;;;0.85;0.50;;;;;;;23.30;30.25;101297.22;4855744;29;20064;-72
2023/05/21 04:33:27;;;;;;;0.52;0.28;;;;;;;23.27;30.33;101291.97;4866198;29;20057;-72
2023/05/21 04:35:56;;;;;;;0.75;0.30;;;;;;;23.21;29.77;101296.44;4859172;29;20057;-73
2023/05/21 04:38:25;;;;;;;1.85;0.30;;;;;;;23.16;30.34;101298.28;4860844;29;20524;-72
2023/05/21 04:40:54;;;;;;;0.68;0.40;;;;;;;23.10;29.59;101298.38;4852376;29;20046;-72
2023/05/21 04:43:24;;;;;;;0.90;0.38;;;;;;;23.04;30.17;101301.06;4846176;29;20049;-72
2023/05/21 04:45:53;;;;;;;1.75;0.30;;;;;;;22.99;29.86;101303.78;4855691;29;20049;-71
2023/05/21 04:48:25;;;;;;;0.52;0.30;;;;;;;22.95;30.36;101311.72;4850429;29;21008;-74
2023/05/21 04:50:54;;;;;;;2.35;0.20;;;;;;;22.93;29.22;101324.06;4851942;29;20241;-73
2023/05/21 04:53:24;;;;;;;0.93;0.25;;;;;;;22.91;29.42;101321.47;4863375;29;20148;-73
2023/05/21 04:55:53;;;;;;;1.38;0.25;;;;;;;22.86;29.71;101323.28;4858609;29;20080;-72
2023/05/21 04:58:21;;;;;;;1.75;0.17;;;;;;;22.83;29.68;101328.59;4856233;29;20101;-71
2023/05/21 05:00:50;;;;;;;0.82;0.30;;;;;;;22.79;29.42;101332.16;4853924;29;20536;-72
2023/05/21 05:03:21;;;;;;;0.20;0.20;;;;;;;22.75;30.55;101343.66;4854231;29;20050;-71
2023/05/21 05:05:51;;;;;;;0.52;0.20;;;;;;;22.71;30.15;101340.16;4857929;29;20056;-71
2023/05/21 05:08:20;;;;;;;0.20;0.20;;;;;;;22.61;30.71;101335.91;4857043;29;20054;-71
2023/05/21 05:10:48;;;;;;;0.60;0.20;;;;;;;22.62;30.76;101356.09;4858134;29;20053;-71
2023/05/21 05:13:19;;;;;;;0.80;0.30;;;;;;;22.58;30.20;101355.25;4847548;29;20569;-73
2023/05/21 05:15:48;;;;;;;0.65;0.20;;;;;;;22.56;29.55;101364.06;4852432;29;20077;-72
2023/05/21 05:18:30;;;;;;;1.08;0.30;;;;;;;22.56;30.26;101372.88;4848453;29;20073;-71
2023/05/21 05:21:01;;;;;;;1.85;0.30;;;;;;;22.51;30.32;101387.84;4853368;29;20057;-71
2023/05/21 05:23:29;;;;;;;1.23;0.50;;;;;;;22.44;31.05;101380.88;4859720;29;20058;-71
2023/05/21 05:25:58;;;;;;;0.77;0.40;;;;;;;22.37;33.22;101392.38;4854302;29;20053;-72
2023/05/21 05:28:28;;;;;;;0.63;0.30;;;;;;;22.32;32.87;101391.56;4855001;29;20057;-72
2023/05/21 05:30:57;;;;;;;1.05;0.57;;;;;;;22.28;33.00;101400.38;4857361;29;20055;-72
2023/05/21 05:33:25;;;;;;;1.10;0.32;;;;;;;22.25;32.42;101411.81;4860552;29;20053;-74
2023/05/21 05:35:54;;;;;;;2.15;0.50;;;;;;;22.15;35.75;101411.00;4859237;29;20064;-73
2023/05/21 05:38:24;;;;;;;1.23;0.60;;;;;;;22.03;38.83;101420.75;4846886;29;20050;-72
2023/05/21 05:40:53;;;;;;;1.40;0.50;;;;;;;21.95;39.40;101431.34;4839588;29;20066;-72
2023/05/21 05:43:32;;;;;;;2.75;1.30;;;;;;;21.83;42.35;101429.69;4832035;29;20053;-73
2023/05/21 05:46:00;;;;;;;3.60;1.13;;;;;;;21.61;44.20;101415.75;4834122;29;20066;-70
2023/05/21 05:48:29;;;;;;;2.35;0.70;;;;;;;21.60;44.84;101431.56;4841390;29;20042;-72
2023/05/21 05:50:58;;;;;;;1.42;0.40;;;;;;;21.51;45.63;101435.13;4835360;29;20424;-72
2023/05/21 05:53:28;;;;;;;2.88;1.40;;;;;;;21.31;46.42;101436.06;4837086;29;20058;-71
2023/05/21 05:55:57;;;;;;;2.42;0.93;;;;;;;21.19;42.99;101443.09;4838181;29;20507;-70
2023/05/21 05:58:26;;;;;;;3.85;0.80;;;;;;;21.04;43.96;101429.13;4841342;29;20579;-72
2023/05/21 06:00:54;;;;;;;2.17;0.40;;;;;;;21.00;38.79;101435.25;4837142;29;20090;-72
2023/05/21 06:03:23;;;;;;;2.65;0.30;;;;;;;20.95;38.73;101444.06;4840486;29;20046;-71
2023/05/21 06:05:51;;;;;;;0.40;0.25;;;;;;;20.93;37.03;101446.69;4842913;29;20057;-71
2023/05/21 06:08:20;;;;;;;0.90;0.50;;;;;;;20.87;39.41;101449.34;4839995;29;20054;-71
2023/05/21 06:10:50;;;;;;;0.52;0.30;;;;;;;20.84;38.13;101451.97;4838462;29;20059;-70
2023/05/21 06:13:18;;;;;;;1.65;0.82;;;;;;;20.82;38.04;101452.00;4837826;29;20050;-72
2023/05/21 06:15:50;;;;;;;0.88;0.25;;;;;;;20.75;38.23;101451.97;4842677;29;20060;-70
2023/05/21 06:18:19;;;;;;;0.50;0.40;;;;;;;20.80;40.62;101472.16;4850375;29;20068;-71
2023/05/21 06:20:47;;;;;;;0.90;0.20;;;;;;;20.80;38.27;101468.63;4839473;29;20319;-70
2023/05/21 06:23:16;;;;;;;0.20;0.15;;;;;;;20.79;39.03;101474.78;4832282;29;20060;-71
2023/05/21 06:25:45;;;;;;;0.35;0.20;;;;;;;20.80;38.84;101477.41;4841509;29;20418;-71
2023/05/21 06:28:16;;;;;;;0.47;0.30;;;;;;;20.79;39.67;101474.78;4838425;29;20056;-71
2023/05/21 06:30:45;;;;;;;0.67;0.33;;;;;;;20.76;41.68;101475.66;4836550;29;20057;-71
2023/05/21 06:33:13;;;;;;;0.77;0.20;;;;;;;20.72;40.14;101473.91;4849716;29;20050;-72
2023/05/21 06:35:42;;;;;;;1.55;0.40;;;;;;;20.66;40.00;101472.19;4840506;29;20045;-72
2023/05/21 06:38:10;;;;;;;1.65;0.30;;;;;;;20.58;39.64;101476.53;4844269;29;20052;-71
2023/05/21 06:40:39;;;;;;;1.33;0.30;;;;;;;20.47;40.48;101467.75;4859057;29;20054;-72
2023/05/21 06:43:07;;;;;;;1.55;0.30;;;;;;;20.39;40.97;101475.66;4858016;29;20496;-71
2023/05/21 06:45:38;;;;;;;0.35;0.10;;;;;;;20.33;41.15;101469.50;4853208;29;20070;-71
2023/05/21 06:48:06;;;;;;;0.47;0.20;;;;;;;20.33;40.96;101480.03;4856479;29;20165;-71
2023/05/21 06:50:35;;;;;;;0.73;0.40;;;;;;;20.32;41.35;101476.53;4854663;29;20503;-71
2023/05/21 06:53:03;;;;;;;0.80;0.28;;;;;;;20.30;41.90;101481.78;4849031;29;20145;-71
2023/05/21 06:55:32;;;;;;;1.40;0.30;;;;;;;20.28;42.32;101483.50;4857769;29;20082;-72
2023/05/21 06:58:01;;;;;;;0.95;0.28;;;;;;;20.24;41.28;101478.25;4858349;29;20054;-73
2023/05/21 07:00:29;;;;;;;0.55;0.22;;;;;;;20.16;41.56;101478.25;4848987;29;20512;-72
2023/05/21 07:02:59;;;;;;;0.20;0.20;;;;;;;20.12;42.17;101481.75;4859884;29;20691;-72
2023/05/21 07:05:28;;;;;;;0.20;0.20;;;;;;;20.07;42.18;101487.00;4860833;29;20745;-71
2023/05/21 07:07:57;;;;;;;0.60;0.30;;;;;;;20.04;42.46;101480.84;4858327;29;20136;-71
2023/05/21 07:10:25;;;;;;;0.30;0.20;;;;;;;19.93;42.74;101479.94;4860070;29;20049;-71
2023/05/21 07:12:54;;;;;;;0.95;0.30;;;;;;;19.92;43.07;101481.69;4862241;29;20049;-71
2023/05/21 07:15:22;;;;;;;0.75;0.32;;;;;;;19.91;43.05;101481.72;4856488;29;20547;-71
2023/05/21 07:17:51;;;;;;;0.30;0.30;;;;;;;19.91;43.09;101473.84;4869369;29;20128;-71
2023/05/21 07:20:21;;;;;;;0.30;0.20;;;;;;;19.87;42.71;101472.94;4869935;29;20118;-71
2023/05/21 07:22:49;;;;;;;4.07;0.40;;;;;;;19.83;42.81;101476.41;4872814;29;20406;-71
2023/05/21 07:25:18;;;;;;;0.50;0.30;;;;;;;19.76;49.37;101478.16;4861744;29;20097;-71
2023/05/21 07:27:46;;;;;;;2.10;0.40;;;;;;;19.66;49.86;101471.97;4857590;29;20048;-72
2023/05/21 07:30:15;;;;;;;1.05;0.30;;;;;;;19.62;50.54;101474.56;4861483;29;20053;-71
2023/05/21 07:32:44;;;;;;;2.42;0.55;;;;;;;19.59;50.86;101485.06;4860853;29;20050;-69
2023/05/21 07:35:13;;;;;;;1.70;0.50;;;;;;;19.58;51.40;101488.56;4862384;29;20060;-72
2023/05/21 07:37:43;;;;;;;0.63;0.40;;;;;;;19.57;51.08;101482.44;4857625;29;20117;-71
2023/05/21 07:40:12;;;;;;;1.25;0.45;;;;;;;19.55;51.24;101486.78;4868535;29;20076;-70
2023/05/21 07:42:41;;;;;;;0.40;0.30;;;;;;;19.54;51.34;101486.78;4862782;29;20049;-70
2023/05/21 07:45:10;;;;;;;3.20;0.65;;;;;;;19.42;48.78;101474.47;4855605;29;20071;-70
2023/05/21 07:47:39;;;;;;;0.30;0.20;;;;;;;19.48;49.95;101497.28;4862163;29;20049;-70
2023/05/21 07:50:08;;;;;;;0.80;0.30;;;;;;;19.43;48.51;101486.75;4860094;29;20061;-71
2023/05/21 07:52:36;;;;;;;3.35;0.52;;;;;;;19.39;50.21;101487.59;4858724;29;20057;-70
2023/05/21 07:55:08;;;;;;;1.10;0.50;;;;;;;19.36;48.61;101498.97;4862146;29;20060;-70
2023/05/21 07:57:36;;;;;;;2.85;0.20;;;;;;;19.32;48.54;101486.69;4859483;29;20485;-70
2023/05/21 08:00:07;;;;;;;1.30;0.50;;;;;;;19.28;48.19;101492.78;4865100;29;20060;-70
2023/05/21 08:02:35;;;;;;;0.75;0.38;;;;;;;19.24;49.71;101504.13;4870919;29;20560;-70
2023/05/21 08:05:04;;;;;;;1.25;0.22;;;;;;;19.22;50.39;101495.41;4877972;29;20049;-71
2023/05/21 08:07:33;;;;;;;0.20;0.20;;;;;;;19.15;47.94;101499.72;4860541;29;20101;-70
2023/05/21 08:10:01;;;;;;;0.63;0.32;;;;;;;19.06;48.67;101502.28;4857007;29;20057;-72
2023/05/21 08:12:31;;;;;;;0.60;0.40;;;;;;;18.98;50.15;101496.97;4859562;29;20056;-70
2023/05/21 08:15:00;;;;;;;0.20;0.10;;;;;;;18.91;50.04;101497.81;4863751;29;20045;-71
2023/05/21 08:17:28;;;;;;;1.00;0.57;;;;;;;18.91;50.09;101503.06;4862025;29;20052;-70
2023/05/21 08:19:57;;;;;;;1.80;0.38;;;;;;;18.92;49.32;101507.44;4865000;29;20049;-70
2023/05/21 08:22:25;;;;;;;1.70;0.30;;;;;;;18.92;49.26;101512.69;4865433;29;20061;-70
2023/05/21 08:24:54;;;;;;;0.52;0.30;;;;;;;18.89;49.26;101517.03;4856104;29;20057;-71
2023/05/21 08:27:22;;;;;;;1.75;0.45;;;;;;;18.83;49.47;101523.13;4856748;29;20140;-71
2023/05/21 08:29:52;;;;;;;0.38;0.22;;;;;;;18.76;50.12;101521.25;4857029;29;20591;-71
2023/05/21 08:32:22;;;;;;;0.32;0.20;;;;;;;18.71;49.91;101523.84;4860185;29;20049;-71
2023/05/21 08:34:51;;;;;;;0.40;0.40;;;;;;;18.63;50.67;101522.91;4857171;29;20081;-70
2023/05/21 08:37:21;;;;;;;0.85;0.35;;;;;;;18.65;51.00;101536.03;4862804;29;20053;-72
2023/05/21 08:39:50;;;;;;;0.50;0.35;;;;;;;18.56;51.03;101532.47;4864869;29;20045;-73
2023/05/21 08:42:41;;;;;;;1.77;0.20;;;;;;;18.47;51.81;101535.00;4866328;29;20605;-71
2023/05/21 08:45:13;;;;;;;2.30;0.57;;;;;;;18.39;52.26;101528.78;4861087;29;20117;-70
2023/05/21 08:47:43;;;;;;;0.65;0.30;;;;;;;18.37;52.34;101533.13;4858476;29;20057;-70
2023/05/21 08:50:14;;;;;;;0.75;0.40;;;;;;;18.36;52.40;101537.50;4867278;29;20477;-70
2023/05/21 08:52:43;;;;;;;3.92;0.43;;;;;;;18.36;51.63;101539.25;4866766;29;20432;-70
2023/05/21 08:55:12;;;;;;;2.70;0.30;;;;;;;18.32;52.37;101540.06;4865157;29;20057;-70
2023/05/21 08:57:43;;;;;;;0.30;0.30;;;;;;;18.29;52.04;101540.06;4877323;29;20559;-72
2023/05/21 09:00:15;;;;;;;0.80;0.35;;;;;;;18.25;52.50;101538.25;4862526;29;20666;-71
2023/05/21 09:02:45;;;;;;;2.23;0.30;;;;;;;18.22;52.36;101544.34;4858138;29;20049;-70
2023/05/21 09:05:14;;;;;;;0.93;0.40;;;;;;;18.20;53.02;101536.47;4857319;29;20053;-70
2023/05/21 09:07:49;;;;;;;0.93;0.40;;;;;;;18.18;53.03;101538.19;4864485;29;20057;-70
2023/05/21 09:10:19;;;;;;;1.27;0.43;;;;;;;18.14;53.52;101541.66;4854202;29;20481;-70
2023/05/21 09:12:47;;;;;;;1.38;0.57;;;;;;;18.11;53.44;101544.22;4861932;29;20041;-70
2023/05/21 09:15:18;;;;;;;0.38;0.38;;;;;;;18.09;54.34;101548.56;4856460;29;20501;-70
2023/05/21 09:17:48;;;;;;;0.50;0.30;;;;;;;18.06;53.79;101553.78;4855151;29;20050;-70
2023/05/21 09:20:25;;;;;;;1.95;0.30;;;;;;;17.99;54.48;101549.34;4865402;29;20105;-72
2023/05/21 09:22:54;;;;;;;1.42;0.45;;;;;;;17.95;54.93;101545.78;4854024;29;20165;-71
2023/05/21 09:25:26;;;;;;;0.52;0.30;;;;;;;17.94;55.21;101553.66;4857647;29;20057;-71
2023/05/21 09:27:57;;;;;;;0.47;0.25;;;;;;;17.90;54.88;101554.47;4857653;29;20670;-71
2023/05/21 09:30:28;;;;;;;0.40;0.40;;;;;;;17.84;55.09;101549.13;4856470;29;20121;-70
2023/05/21 09:32:58;;;;;;;0.30;0.20;;;;;;;17.79;55.45;101547.31;4857530;29;20130;-70
2023/05/21 09:35:27;;;;;;;0.45;0.35;;;;;;;17.75;55.79;101549.88;4859406;29;20518;-70
2023/05/21 09:37:56;;;;;;;0.55;0.30;;;;;;;17.62;55.49;101559.31;4862398;29;20044;-70
2023/05/21 09:40:25;;;;;;;1.50;0.63;;;;;;;17.57;55.88;101569.72;4861852;29;20054;-71
2023/05/21 09:42:55;;;;;;;0.68;0.20;;;;;;;17.52;56.43;101573.13;4854193;29;20072;-70
2023/05/21 09:45:27;;;;;;;0.30;0.20;;;;;;;17.47;56.55;101572.19;4859154;29;20045;-72
2023/05/21 09:47:56;;;;;;;1.10;0.25;;;;;;;17.39;56.88;101566.84;4860548;29;20049;-70
2023/05/21 09:50:27;;;;;;;1.70;0.52;;;;;;;17.35;57.56;101571.13;4860066;29;20054;-70
2023/05/21 09:52:57;;;;;;;0.22;0.20;;;;;;;17.29;58.24;101580.63;4857196;29;20125;-71
2023/05/21 09:55:26;;;;;;;0.50;0.40;;;;;;;17.25;57.81;101570.97;4855631;29;20053;-70
2023/05/21 09:57:55;;;;;;;0.20;0.20;;;;;;;17.22;58.94;101577.03;4849492;29;20138;-70
2023/05/21 10:00:28;;;;;;;0.30;0.20;;;;;;;17.16;58.72;101571.75;4860175;29;20560;-70
2023/05/21 10:02:58;;;;;;;3.03;0.30;;;;;;;17.13;59.59;101577.81;4851250;29;20064;-71
2023/05/21 10:05:29;;;;;;;1.02;0.20;;;;;;;17.10;59.84;101575.13;4853911;29;20050;-70
2023/05/21 10:08:01;;;;;;;0.30;0.20;;;;;;;17.09;59.89;101580.34;4859372;29;20567;-71
2023/05/21 10:10:30;;;;;;;0.40;0.25;;;;;;;17.04;59.69;101571.53;4851781;29;20145;-71
2023/05/21 10:13:01;;;;;;;0.10;0.10;;;;;;;16.98;60.13;101571.44;4856545;29;20105;-71
2023/05/21 10:15:36;;;;;;;0.30;0.20;;;;;;;16.94;59.91;101580.97;4866515;29;20049;-71
2023/05/21 10:18:05;;;;;;;0.15;0.10;;;;;;;16.90;60.05;101571.31;4853618;29;20473;-71
2023/05/21 10:20:33;;;;;;;0.95;0.30;;;;;;;16.87;60.96;101574.75;4860785;29;20140;-71
2023/05/21 10:23:03;;;;;;;0.55;0.20;;;;;;;16.82;60.69;101580.78;4854199;29;20064;-70
2023/05/21 10:25:33;;;;;;;1.38;0.40;;;;;;;16.79;60.93;101578.03;4856310;29;20052;-70
2023/05/21 10:28:02;;;;;;;0.30;0.20;;;;;;;16.74;61.64;101577.97;4855970;29;20141;-71
2023/05/21 10:30:33;;;;;;;0.30;0.22;;;;;;;16.69;61.72;101580.50;4854908;29;20113;-71
2023/05/21 10:33:03;;;;;;;0.10;0.10;;;;;;;16.64;62.16;101581.28;4861141;29;20057;-71
2023/05/21 10:35:32;;;;;;;0.63;0.38;;;;;;;16.62;62.82;101572.53;4856620;29;20132;-71
2023/05/21 10:38:05;;;;;;;1.27;0.30;;;;;;;16.55;62.26;101580.25;4854149;29;20061;-70
2023/05/21 10:40:34;;;;;;;;;;;;;;;16.48;63.08;101578.38;4868938;29;20112;-70
2023/05/21 10:43:28;;;;;;;0.20;0.20;;;;;;;16.45;63.49;101575.72;4854734;29;20561;-70
2023/05/21 10:46:26;;;;;;;0.30;0.20;;;;;;;16.43;63.10;101580.03;4852808;29;20068;-70
2023/05/21 10:49:06;;;;;;;0.35;0.20;;;;;;;16.41;62.55;101580.88;4861950;29;20134;-69
2023/05/21 10:51:46;;;;;;;0.32;0.20;;;;;;;16.38;63.12;101581.69;4849695;29;20064;-70
2023/05/21 10:55:05;;;;;;;0.25;0.20;;;;;;;16.34;63.83;101585.09;4856671;29;20222;-70
2023/05/21 10:58:00;;;;;;;0.95;0.20;;;;;;;16.28;63.97;101587.59;4799083;29;20051;-72
2023/05/21 11:00:30;;;;;;;0.17;0.17;;;;;;;16.23;64.00;101589.22;4854819;29;20140;-72
2023/05/21 11:03:03;;;;;;;0.68;0.10;;;;;;;16.17;65.19;101600.44;4857750;29;20089;-71
2023/05/21 11:05:41;;;;;;;1.10;0.20;;;;;;;16.11;64.90;101601.19;4856380;29;20192;-69
2023/05/21 11:08:26;;;;;;;0.63;0.63;;;;;;;16.10;65.38;101598.53;4860773;29;20149;-70
2023/05/21 11:10:56;;;;;;;0.10;0.10;;;;;;;16.08;65.33;101595.00;4852109;29;20058;-70
2023/05/21 11:13:26;;;;;;;0.40;0.15;;;;;;;16.05;65.20;101610.63;4850678;29;20076;-71
2023/05/21 11:16:08;;;;;;;0.60;0.45;;;;;;;15.99;65.75;101614.00;4854266;29;20052;-71
2023/05/21 11:19:03;;;;;;;0.10;0.10;;;;;;;15.98;65.53;101619.19;4853241;29;20145;-71
2023/05/21 11:21:34;;;;;;;0.85;0.10;;;;;;;15.93;64.51;101613.88;4851661;29;20105;-69
2023/05/21 11:24:09;;;;;;;0.57;0.05;;;;;;;15.89;66.06;101617.25;4860694;29;20069;-70
2023/05/21 11:27:03;;;;;;;1.48;0.15;;;;;;;15.88;66.10;101612.91;4854652;29;20061;-70
2023/05/21 11:29:43;;;;;;;0.20;0.10;;;;;;;15.86;66.08;101617.19;4855472;29;20057;-70
2023/05/21 11:32:13;;;;;;;0.32;0.20;;;;;;;15.84;66.77;101616.28;4845695;29;20056;-72
2023/05/21 11:34:46;;;;;;;0.30;0.10;;;;;;;15.82;66.62;101621.44;4850315;29;20110;-72
2023/05/21 11:37:33;;;;;;;0.05;0.05;;;;;;;15.77;66.99;101614.38;4857218;29;20045;-70
2023/05/21 11:40:24;;;;;;;0.20;0.13;;;;;;;15.73;66.85;101615.16;4858219;29;20512;-69